sensor_id;sensor_type;location;lat;lon;timestamp;P1;durP1;ratioP1;P2;durP2;ratioP2
5807;SDS011;2930;42.678;23.312;2022-12-07T00:01:40;6.33;;;4.83;;
5807;SDS011;2930;42.678;23.312;2022-12-07T00:04:10;7.43;;;4.97;;
5807;SDS011;2930;42.678;23.312;2022-12-07T00:06:39;4.97;;;4.23;;
5807;SDS011;2930;42.678;23.312;2022-12-07T00:09:13;7.60;;;5.70;;
5807;SDS011;2930;42.678;23.312;2022-12-07T00:11:40;11.70;;;6.50;;
5807;SDS011;2930;42.678;23.312;2022-12-07T00:14:07;5.93;;;4.43;;
5807;SDS011;2930;42.678;23.312;2022-12-07T00:16:35;6.90;;;5.23;;
5807;SDS011;2930;42.678;23.312;2022-12-07T00:19:02;12.03;;;6.50;;
5807;SDS011;2930;42.678;23.312;2022-12-07T00:21:32;10.17;;;4.67;;
5807;SDS011;2930;42.678;23.312;2022-12-07T00:23:59;13.80;;;5.47;;
5807;SDS011;2930;42.678;23.312;2022-12-07T00:26:26;8.70;;;5.43;;
5807;SDS011;2930;42.678;23.312;2022-12-07T00:28:58;8.67;;;4.90;;
5807;SDS011;2930;42.678;23.312;2022-12-07T00:31:27;8.23;;;5.23;;
5807;SDS011;2930;42.678;23.312;2022-12-07T00:33:54;11.70;;;4.20;;
5807;SDS011;2930;42.678;23.312;2022-12-07T00:36:22;5.97;;;4.70;;
5807;SDS011;2930;42.678;23.312;2022-12-07T00:38:48;5.27;;;4.43;;
5807;SDS011;2930;42.678;23.312;2022-12-07T00:41:15;7.43;;;4.70;;
5807;SDS011;2930;42.678;23.312;2022-12-07T00:43:48;9.00;;;4.43;;
5807;SDS011;2930;42.678;23.312;2022-12-07T00:46:14;5.87;;;4.07;;
5807;SDS011;2930;42.678;23.312;2022-12-07T00:48:41;5.83;;;4.00;;
5807;SDS011;2930;42.678;23.312;2022-12-07T00:51:08;7.17;;;3.87;;
5807;SDS011;2930;42.678;23.312;2022-12-07T00:53:35;6.63;;;4.63;;
5807;SDS011;2930;42.678;23.312;2022-12-07T00:56:06;10.93;;;4.00;;
5807;SDS011;2930;42.678;23.312;2022-12-07T00:58:32;8.63;;;4.37;;
5807;SDS011;2930;42.678;23.312;2022-12-07T01:01:02;8.57;;;5.53;;
5807;SDS011;2930;42.678;23.312;2022-12-07T01:03:28;7.27;;;4.67;;
5807;SDS011;2930;42.678;23.312;2022-12-07T01:05:55;8.17;;;5.20;;
5807;SDS011;2930;42.678;23.312;2022-12-07T01:08:22;6.90;;;3.63;;
5807;SDS011;2930;42.678;23.312;2022-12-07T01:10:49;11.63;;;4.67;;
5807;SDS011;2930;42.678;23.312;2022-12-07T01:13:22;7.70;;;4.90;;
5807;SDS011;2930;42.678;23.312;2022-12-07T01:15:47;10.03;;;4.47;;
5807;SDS011;2930;42.678;23.312;2022-12-07T01:18:13;8.87;;;4.57;;
5807;SDS011;2930;42.678;23.312;2022-12-07T01:20:39;9.77;;;5.60;;
5807;SDS011;2930;42.678;23.312;2022-12-07T01:23:05;13.70;;;6.23;;
5807;SDS011;2930;42.678;23.312;2022-12-07T01:25:31;9.73;;;6.20;;
5807;SDS011;2930;42.678;23.312;2022-12-07T01:27:59;7.00;;;5.07;;
5807;SDS011;2930;42.678;23.312;2022-12-07T01:30:25;9.77;;;5.73;;
5807;SDS011;2930;42.678;23.312;2022-12-07T01:32:50;9.53;;;5.50;;
5807;SDS011;2930;42.678;23.312;2022-12-07T01:35:16;8.53;;;5.30;;
5807;SDS011;2930;42.678;23.312;2022-12-07T01:37:42;8.13;;;5.43;;
5807;SDS011;2930;42.678;23.312;2022-12-07T01:40:08;11.67;;;6.13;;
5807;SDS011;2930;42.678;23.312;2022-12-07T01:42:34;9.33;;;5.80;;
5807;SDS011;2930;42.678;23.312;2022-12-07T01:48:02;6.37;;;4.90;;
5807;SDS011;2930;42.678;23.312;2022-12-07T01:50:29;8.07;;;5.10;;
5807;SDS011;2930;42.678;23.312;2022-12-07T01:52:56;9.73;;;4.90;;
5807;SDS011;2930;42.678;23.312;2022-12-07T01:55:27;8.57;;;5.20;;
5807;SDS011;2930;42.678;23.312;2022-12-07T01:57:53;7.17;;;4.27;;
5807;SDS011;2930;42.678;23.312;2022-12-07T02:00:20;8.87;;;5.17;;
5807;SDS011;2930;42.678;23.312;2022-12-07T02:03:08;8.07;;;5.27;;
5807;SDS011;2930;42.678;23.312;2022-12-07T02:05:38;8.60;;;5.23;;
5807;SDS011;2930;42.678;23.312;2022-12-07T02:08:06;10.43;;;4.97;;
5807;SDS011;2930;42.678;23.312;2022-12-07T02:10:33;8.90;;;5.83;;
5807;SDS011;2930;42.678;23.312;2022-12-07T02:13:10;10.17;;;5.20;;
5807;SDS011;2930;42.678;23.312;2022-12-07T02:21:41;8.90;;;6.20;;
5807;SDS011;2930;42.678;23.312;2022-12-07T02:40:43;13.70;;;7.40;;
5807;SDS011;2930;42.678;23.312;2022-12-07T02:43:19;11.57;;;6.43;;
5807;SDS011;2930;42.678;23.312;2022-12-07T02:46:06;9.97;;;6.33;;
5807;SDS011;2930;42.678;23.312;2022-12-07T02:48:36;16.13;;;7.50;;
5807;SDS011;2930;42.678;23.312;2022-12-07T02:51:04;13.97;;;7.43;;
5807;SDS011;2930;42.678;23.312;2022-12-07T02:53:34;10.50;;;6.47;;
5807;SDS011;2930;42.678;23.312;2022-12-07T02:58:50;14.13;;;7.63;;
5807;SDS011;2930;42.678;23.312;2022-12-07T03:06:57;13.97;;;8.23;;
5807;SDS011;2930;42.678;23.312;2022-12-07T03:09:37;16.63;;;8.07;;
5807;SDS011;2930;42.678;23.312;2022-12-07T03:12:19;15.40;;;7.20;;
5807;SDS011;2930;42.678;23.312;2022-12-07T03:14:52;12.40;;;7.23;;
5807;SDS011;2930;42.678;23.312;2022-12-07T03:17:30;16.17;;;7.93;;
5807;SDS011;2930;42.678;23.312;2022-12-07T03:20:00;15.63;;;7.33;;
5807;SDS011;2930;42.678;23.312;2022-12-07T03:22:30;16.57;;;6.63;;
5807;SDS011;2930;42.678;23.312;2022-12-07T03:25:00;13.57;;;7.97;;
5807;SDS011;2930;42.678;23.312;2022-12-07T03:27:41;11.90;;;6.50;;
5807;SDS011;2930;42.678;23.312;2022-12-07T03:30:21;9.50;;;6.63;;
5807;SDS011;2930;42.678;23.312;2022-12-07T03:33:03;14.77;;;6.63;;
5807;SDS011;2930;42.678;23.312;2022-12-07T03:35:36;11.83;;;6.30;;
5807;SDS011;2930;42.678;23.312;2022-12-07T03:38:17;13.20;;;7.03;;
5807;SDS011;2930;42.678;23.312;2022-12-07T03:43:30;11.97;;;6.20;;
5807;SDS011;2930;42.678;23.312;2022-12-07T03:46:00;12.07;;;6.23;;
5807;SDS011;2930;42.678;23.312;2022-12-07T03:48:45;11.20;;;7.17;;
5807;SDS011;2930;42.678;23.312;2022-12-07T03:54:34;15.03;;;6.30;;
5807;SDS011;2930;42.678;23.312;2022-12-07T03:57:06;16.87;;;6.80;;
5807;SDS011;2930;42.678;23.312;2022-12-07T03:59:33;13.63;;;7.50;;
5807;SDS011;2930;42.678;23.312;2022-12-07T04:02:03;10.77;;;7.30;;
5807;SDS011;2930;42.678;23.312;2022-12-07T04:04:31;12.90;;;6.77;;
5807;SDS011;2930;42.678;23.312;2022-12-07T04:06:57;12.07;;;6.83;;
5807;SDS011;2930;42.678;23.312;2022-12-07T04:09:23;15.70;;;7.63;;
5807;SDS011;2930;42.678;23.312;2022-12-07T04:11:50;9.83;;;6.67;;
5807;SDS011;2930;42.678;23.312;2022-12-07T04:14:16;12.80;;;5.80;;
5807;SDS011;2930;42.678;23.312;2022-12-07T04:16:58;13.17;;;6.97;;
5807;SDS011;2930;42.678;23.312;2022-12-07T04:19:25;11.03;;;6.70;;
5807;SDS011;2930;42.678;23.312;2022-12-07T04:21:52;15.83;;;7.80;;
5807;SDS011;2930;42.678;23.312;2022-12-07T04:24:18;12.67;;;5.77;;
5807;SDS011;2930;42.678;23.312;2022-12-07T04:26:44;9.67;;;6.30;;
5807;SDS011;2930;42.678;23.312;2022-12-07T04:29:11;9.53;;;6.03;;
5807;SDS011;2930;42.678;23.312;2022-12-07T04:31:37;14.00;;;6.37;;
5807;SDS011;2930;42.678;23.312;2022-12-07T04:34:04;10.57;;;6.37;;
5807;SDS011;2930;42.678;23.312;2022-12-07T04:36:31;11.53;;;6.87;;
5807;SDS011;2930;42.678;23.312;2022-12-07T04:38:57;8.33;;;6.37;;
5807;SDS011;2930;42.678;23.312;2022-12-07T04:41:23;10.47;;;7.17;;
5807;SDS011;2930;42.678;23.312;2022-12-07T04:44:00;10.27;;;5.03;;
5807;SDS011;2930;42.678;23.312;2022-12-07T04:46:28;11.80;;;5.90;;
5807;SDS011;2930;42.678;23.312;2022-12-07T04:48:55;9.40;;;5.93;;
5807;SDS011;2930;42.678;23.312;2022-12-07T04:51:22;10.63;;;5.97;;
5807;SDS011;2930;42.678;23.312;2022-12-07T04:53:50;9.87;;;5.73;;
5807;SDS011;2930;42.678;23.312;2022-12-07T04:56:17;10.50;;;4.47;;
5807;SDS011;2930;42.678;23.312;2022-12-07T04:58:44;6.03;;;4.07;;
5807;SDS011;2930;42.678;23.312;2022-12-07T05:01:11;10.53;;;5.13;;
5807;SDS011;2930;42.678;23.312;2022-12-07T05:03:37;8.03;;;4.33;;
5807;SDS011;2930;42.678;23.312;2022-12-07T05:06:03;7.87;;;4.40;;
5807;SDS011;2930;42.678;23.312;2022-12-07T05:08:30;8.97;;;5.33;;
5807;SDS011;2930;42.678;23.312;2022-12-07T05:10:56;10.80;;;5.60;;
5807;SDS011;2930;42.678;23.312;2022-12-07T05:13:22;7.60;;;5.00;;
5807;SDS011;2930;42.678;23.312;2022-12-07T05:15:48;9.23;;;5.27;;
5807;SDS011;2930;42.678;23.312;2022-12-07T05:18:14;18.47;;;6.70;;
5807;SDS011;2930;42.678;23.312;2022-12-07T05:20:40;13.90;;;7.03;;
5807;SDS011;2930;42.678;23.312;2022-12-07T05:23:07;15.03;;;6.67;;
5807;SDS011;2930;42.678;23.312;2022-12-07T05:25:33;11.13;;;6.37;;
5807;SDS011;2930;42.678;23.312;2022-12-07T05:27:59;18.13;;;6.60;;
5807;SDS011;2930;42.678;23.312;2022-12-07T05:30:25;13.63;;;6.80;;
5807;SDS011;2930;42.678;23.312;2022-12-07T05:32:51;11.40;;;6.23;;
5807;SDS011;2930;42.678;23.312;2022-12-07T05:35:17;8.43;;;5.83;;
5807;SDS011;2930;42.678;23.312;2022-12-07T05:37:44;10.50;;;6.40;;
5807;SDS011;2930;42.678;23.312;2022-12-07T05:40:11;10.73;;;5.57;;
5807;SDS011;2930;42.678;23.312;2022-12-07T05:42:39;10.40;;;7.27;;
5807;SDS011;2930;42.678;23.312;2022-12-07T05:45:06;12.77;;;6.80;;
5807;SDS011;2930;42.678;23.312;2022-12-07T05:47:32;11.73;;;6.83;;
5807;SDS011;2930;42.678;23.312;2022-12-07T05:49:58;15.63;;;6.23;;
5807;SDS011;2930;42.678;23.312;2022-12-07T05:52:24;10.30;;;6.63;;
5807;SDS011;2930;42.678;23.312;2022-12-07T05:54:50;9.20;;;6.10;;
5807;SDS011;2930;42.678;23.312;2022-12-07T05:57:17;10.73;;;6.23;;
5807;SDS011;2930;42.678;23.312;2022-12-07T05:59:43;19.57;;;6.67;;
5807;SDS011;2930;42.678;23.312;2022-12-07T06:02:10;11.00;;;7.13;;
5807;SDS011;2930;42.678;23.312;2022-12-07T06:04:38;13.50;;;7.00;;
5807;SDS011;2930;42.678;23.312;2022-12-07T06:07:05;11.63;;;6.00;;
5807;SDS011;2930;42.678;23.312;2022-12-07T06:09:32;13.63;;;5.50;;
5807;SDS011;2930;42.678;23.312;2022-12-07T06:11:58;9.30;;;6.17;;
5807;SDS011;2930;42.678;23.312;2022-12-07T06:14:43;10.20;;;5.07;;
5807;SDS011;2930;42.678;23.312;2022-12-07T06:17:10;13.23;;;6.50;;
5807;SDS011;2930;42.678;23.312;2022-12-07T06:19:37;10.30;;;6.17;;
5807;SDS011;2930;42.678;23.312;2022-12-07T06:22:04;8.03;;;5.10;;
5807;SDS011;2930;42.678;23.312;2022-12-07T06:24:31;15.23;;;6.07;;
5807;SDS011;2930;42.678;23.312;2022-12-07T06:26:57;8.57;;;5.70;;
5807;SDS011;2930;42.678;23.312;2022-12-07T06:29:24;8.47;;;5.33;;
5807;SDS011;2930;42.678;23.312;2022-12-07T06:31:49;11.33;;;5.90;;
5807;SDS011;2930;42.678;23.312;2022-12-07T06:34:16;9.07;;;5.70;;
5807;SDS011;2930;42.678;23.312;2022-12-07T06:36:43;6.23;;;4.30;;
5807;SDS011;2930;42.678;23.312;2022-12-07T06:39:10;8.20;;;4.73;;
5807;SDS011;2930;42.678;23.312;2022-12-07T06:41:36;11.57;;;6.00;;
5807;SDS011;2930;42.678;23.312;2022-12-07T06:44:05;7.53;;;4.60;;
5807;SDS011;2930;42.678;23.312;2022-12-07T06:46:31;8.73;;;4.60;;
5807;SDS011;2930;42.678;23.312;2022-12-07T06:48:57;5.33;;;4.60;;
5807;SDS011;2930;42.678;23.312;2022-12-07T06:51:22;5.33;;;4.20;;
5807;SDS011;2930;42.678;23.312;2022-12-07T06:53:50;10.83;;;4.80;;
5807;SDS011;2930;42.678;23.312;2022-12-07T06:56:15;9.97;;;4.53;;
5807;SDS011;2930;42.678;23.312;2022-12-07T06:58:41;6.73;;;4.70;;
5807;SDS011;2930;42.678;23.312;2022-12-07T07:01:10;8.37;;;4.23;;
5807;SDS011;2930;42.678;23.312;2022-12-07T07:03:37;10.40;;;5.00;;
5807;SDS011;2930;42.678;23.312;2022-12-07T07:06:03;12.37;;;5.97;;
5807;SDS011;2930;42.678;23.312;2022-12-07T07:08:30;8.50;;;5.10;;
5807;SDS011;2930;42.678;23.312;2022-12-07T07:10:56;8.93;;;4.87;;
5807;SDS011;2930;42.678;23.312;2022-12-07T07:13:21;7.10;;;4.83;;
5807;SDS011;2930;42.678;23.312;2022-12-07T07:15:47;5.57;;;4.93;;
5807;SDS011;2930;42.678;23.312;2022-12-07T07:18:13;15.03;;;6.03;;
5807;SDS011;2930;42.678;23.312;2022-12-07T07:20:39;10.17;;;5.30;;
5807;SDS011;2930;42.678;23.312;2022-12-07T07:23:05;13.70;;;6.03;;
5807;SDS011;2930;42.678;23.312;2022-12-07T07:25:31;9.70;;;5.57;;
5807;SDS011;2930;42.678;23.312;2022-12-07T07:27:56;10.67;;;5.77;;
5807;SDS011;2930;42.678;23.312;2022-12-07T07:30:22;9.37;;;5.27;;
5807;SDS011;2930;42.678;23.312;2022-12-07T07:32:48;14.10;;;6.57;;
5807;SDS011;2930;42.678;23.312;2022-12-07T07:35:14;18.60;;;7.80;;
5807;SDS011;2930;42.678;23.312;2022-12-07T07:37:40;17.37;;;7.93;;
5807;SDS011;2930;42.678;23.312;2022-12-07T07:40:06;12.83;;;8.33;;
5807;SDS011;2930;42.678;23.312;2022-12-07T07:42:33;17.03;;;7.40;;
5807;SDS011;2930;42.678;23.312;2022-12-07T07:44:59;14.37;;;8.33;;
5807;SDS011;2930;42.678;23.312;2022-12-07T07:47:24;15.90;;;8.53;;
5807;SDS011;2930;42.678;23.312;2022-12-07T07:49:50;21.20;;;10.00;;
5807;SDS011;2930;42.678;23.312;2022-12-07T07:52:15;16.37;;;8.27;;
5807;SDS011;2930;42.678;23.312;2022-12-07T07:54:41;11.73;;;7.45;;
5807;SDS011;2930;42.678;23.312;2022-12-07T07:57:07;10.77;;;7.30;;
5807;SDS011;2930;42.678;23.312;2022-12-07T07:59:32;17.53;;;7.70;;
5807;SDS011;2930;42.678;23.312;2022-12-07T08:01:58;12.50;;;8.30;;
5807;SDS011;2930;42.678;23.312;2022-12-07T08:04:24;15.93;;;7.53;;
5807;SDS011;2930;42.678;23.312;2022-12-07T08:06:49;16.50;;;9.30;;
5807;SDS011;2930;42.678;23.312;2022-12-07T08:09:15;18.23;;;8.32;;
5807;SDS011;2930;42.678;23.312;2022-12-07T08:11:41;13.15;;;8.50;;
5807;SDS011;2930;42.678;23.312;2022-12-07T08:14:06;13.47;;;7.83;;
5807;SDS011;2930;42.678;23.312;2022-12-07T08:16:32;12.95;;;8.43;;
5807;SDS011;2930;42.678;23.312;2022-12-07T08:18:58;14.40;;;8.10;;
5807;SDS011;2930;42.678;23.312;2022-12-07T08:21:23;15.73;;;7.82;;
5807;SDS011;2930;42.678;23.312;2022-12-07T08:23:49;15.38;;;8.55;;
5807;SDS011;2930;42.678;23.312;2022-12-07T08:26:15;11.65;;;8.07;;
5807;SDS011;2930;42.678;23.312;2022-12-07T08:28:42;16.55;;;7.95;;
5807;SDS011;2930;42.678;23.312;2022-12-07T08:31:10;19.83;;;8.52;;
5807;SDS011;2930;42.678;23.312;2022-12-07T08:33:37;17.80;;;8.70;;
5807;SDS011;2930;42.678;23.312;2022-12-07T08:36:04;14.55;;;8.30;;
5807;SDS011;2930;42.678;23.312;2022-12-07T08:38:32;16.60;;;8.50;;
5807;SDS011;2930;42.678;23.312;2022-12-07T08:40:59;13.65;;;8.25;;
5807;SDS011;2930;42.678;23.312;2022-12-07T08:43:25;13.90;;;8.43;;
5807;SDS011;2930;42.678;23.312;2022-12-07T08:45:53;18.67;;;9.85;;
5807;SDS011;2930;42.678;23.312;2022-12-07T08:48:30;19.42;;;9.75;;
5807;SDS011;2930;42.678;23.312;2022-12-07T08:50:57;20.40;;;10.52;;
5807;SDS011;2930;42.678;23.312;2022-12-07T08:53:23;15.68;;;10.07;;
5807;SDS011;2930;42.678;23.312;2022-12-07T08:55:49;21.02;;;10.63;;
5807;SDS011;2930;42.678;23.312;2022-12-07T08:58:15;15.38;;;9.40;;
5807;SDS011;2930;42.678;23.312;2022-12-07T09:00:40;19.63;;;10.55;;
5807;SDS011;2930;42.678;23.312;2022-12-07T09:03:06;26.40;;;10.88;;
5807;SDS011;2930;42.678;23.312;2022-12-07T09:05:32;22.25;;;11.35;;
5807;SDS011;2930;42.678;23.312;2022-12-07T09:07:59;17.40;;;9.95;;
5807;SDS011;2930;42.678;23.312;2022-12-07T09:10:26;16.35;;;9.55;;
5807;SDS011;2930;42.678;23.312;2022-12-07T09:12:53;19.30;;;10.50;;
5807;SDS011;2930;42.678;23.312;2022-12-07T09:15:19;22.17;;;10.43;;
5807;SDS011;2930;42.678;23.312;2022-12-07T09:17:45;15.88;;;8.98;;
5807;SDS011;2930;42.678;23.312;2022-12-07T09:20:12;17.75;;;10.52;;
5807;SDS011;2930;42.678;23.312;2022-12-07T09:22:37;18.75;;;9.85;;
5807;SDS011;2930;42.678;23.312;2022-12-07T09:25:03;16.13;;;10.10;;
5807;SDS011;2930;42.678;23.312;2022-12-07T09:27:30;17.30;;;10.43;;
5807;SDS011;2930;42.678;23.312;2022-12-07T09:29:56;22.83;;;10.98;;
5807;SDS011;2930;42.678;23.312;2022-12-07T09:32:21;16.08;;;9.63;;
5807;SDS011;2930;42.678;23.312;2022-12-07T09:34:47;16.42;;;9.82;;
5807;SDS011;2930;42.678;23.312;2022-12-07T09:37:13;13.68;;;8.18;;
5807;SDS011;2930;42.678;23.312;2022-12-07T09:39:39;18.80;;;9.82;;
5807;SDS011;2930;42.678;23.312;2022-12-07T09:42:05;13.52;;;8.38;;
5807;SDS011;2930;42.678;23.312;2022-12-07T09:44:32;27.58;;;8.88;;
5807;SDS011;2930;42.678;23.312;2022-12-07T09:46:59;14.23;;;8.10;;
5807;SDS011;2930;42.678;23.312;2022-12-07T09:49:30;16.75;;;9.77;;
5807;SDS011;2930;42.678;23.312;2022-12-07T09:52:16;15.23;;;8.40;;
5807;SDS011;2930;42.678;23.312;2022-12-07T09:54:46;18.90;;;10.35;;
5807;SDS011;2930;42.678;23.312;2022-12-07T09:57:13;16.27;;;7.93;;
5807;SDS011;2930;42.678;23.312;2022-12-07T09:59:39;20.70;;;9.43;;
5807;SDS011;2930;42.678;23.312;2022-12-07T10:05:04;10.43;;;8.20;;
5807;SDS011;2930;42.678;23.312;2022-12-07T10:07:37;18.45;;;9.80;;
5807;SDS011;2930;42.678;23.312;2022-12-07T10:10:06;19.98;;;8.93;;
5807;SDS011;2930;42.678;23.312;2022-12-07T10:12:52;19.20;;;10.45;;
5807;SDS011;2930;42.678;23.312;2022-12-07T10:15:19;16.23;;;9.60;;
5807;SDS011;2930;42.678;23.312;2022-12-07T10:17:51;17.15;;;9.70;;
5807;SDS011;2930;42.678;23.312;2022-12-07T10:22:55;15.98;;;10.20;;
5807;SDS011;2930;42.678;23.312;2022-12-07T10:25:24;21.33;;;9.70;;
5807;SDS011;2930;42.678;23.312;2022-12-07T10:28:00;20.27;;;9.23;;
5807;SDS011;2930;42.678;23.312;2022-12-07T10:36:33;14.90;;;9.82;;
5807;SDS011;2930;42.678;23.312;2022-12-07T10:42:00;29.65;;;10.60;;
5807;SDS011;2930;42.678;23.312;2022-12-07T10:44:28;12.93;;;8.63;;
5807;SDS011;2930;42.678;23.312;2022-12-07T11:20:03;16.88;;;8.75;;
5807;SDS011;2930;42.678;23.312;2022-12-07T11:25:37;17.83;;;9.13;;
5807;SDS011;2930;42.678;23.312;2022-12-07T11:39:00;12.48;;;7.95;;
5807;SDS011;2930;42.678;23.312;2022-12-07T11:41:31;14.18;;;8.25;;
5807;SDS011;2930;42.678;23.312;2022-12-07T11:46:58;10.30;;;7.85;;
5807;SDS011;2930;42.678;23.312;2022-12-07T11:54:57;13.52;;;6.80;;
5807;SDS011;2930;42.678;23.312;2022-12-07T11:57:31;11.02;;;7.78;;
5807;SDS011;2930;42.678;23.312;2022-12-07T12:00:06;13.95;;;7.88;;
5807;SDS011;2930;42.678;23.312;2022-12-07T12:05:43;9.93;;;6.78;;
5807;SDS011;2930;42.678;23.312;2022-12-07T12:08:28;12.55;;;7.35;;
5807;SDS011;2930;42.678;23.312;2022-12-07T12:22:23;16.60;;;7.57;;
5807;SDS011;2930;42.678;23.312;2022-12-07T12:24:58;11.85;;;6.97;;
5807;SDS011;2930;42.678;23.312;2022-12-07T12:27:27;13.23;;;7.93;;
5807;SDS011;2930;42.678;23.312;2022-12-07T12:30:00;9.35;;;6.45;;
5807;SDS011;2930;42.678;23.312;2022-12-07T12:32:40;13.73;;;6.78;;
5807;SDS011;2930;42.678;23.312;2022-12-07T12:37:55;11.70;;;6.45;;
5807;SDS011;2930;42.678;23.312;2022-12-07T12:40:41;10.38;;;6.95;;
5807;SDS011;2930;42.678;23.312;2022-12-07T12:43:39;10.52;;;6.40;;
5807;SDS011;2930;42.678;23.312;2022-12-07T12:51:45;11.10;;;7.43;;
5807;SDS011;2930;42.678;23.312;2022-12-07T13:07:59;9.80;;;6.45;;
5807;SDS011;2930;42.678;23.312;2022-12-07T13:10:45;9.23;;;6.32;;
5807;SDS011;2930;42.678;23.312;2022-12-07T13:21:40;8.00;;;5.15;;
5807;SDS011;2930;42.678;23.312;2022-12-07T13:23:54;6.80;;;5.57;;
5807;SDS011;2930;42.678;23.312;2022-12-07T13:29:21;5.88;;;5.30;;
5807;SDS011;2930;42.678;23.312;2022-12-07T13:31:47;5.25;;;4.68;;
5807;SDS011;2930;42.678;23.312;2022-12-07T13:34:35;6.30;;;4.95;;
5807;SDS011;2930;42.678;23.312;2022-12-07T13:39:44;6.20;;;5.50;;
5807;SDS011;2930;42.678;23.312;2022-12-07T13:42:27;6.90;;;5.13;;
5807;SDS011;2930;42.678;23.312;2022-12-07T13:44:55;6.50;;;5.10;;
5807;SDS011;2930;42.678;23.312;2022-12-07T13:50:00;10.30;;;4.97;;
5807;SDS011;2930;42.678;23.312;2022-12-07T13:52:26;6.25;;;5.47;;
5807;SDS011;2930;42.678;23.312;2022-12-07T13:55:01;6.28;;;5.50;;
5807;SDS011;2930;42.678;23.312;2022-12-07T13:57:30;4.88;;;4.47;;
5807;SDS011;2930;42.678;23.312;2022-12-07T14:00:04;8.25;;;5.55;;
5807;SDS011;2930;42.678;23.312;2022-12-07T14:02:53;6.70;;;5.05;;
5807;SDS011;2930;42.678;23.312;2022-12-07T14:07:58;7.50;;;5.22;;
5807;SDS011;2930;42.678;23.312;2022-12-07T14:12:58;12.80;;;5.38;;
5807;SDS011;2930;42.678;23.312;2022-12-07T14:15:34;7.38;;;4.95;;
5807;SDS011;2930;42.678;23.312;2022-12-07T14:18:01;8.27;;;5.28;;
5807;SDS011;2930;42.678;23.312;2022-12-07T14:22:58;7.20;;;5.40;;
5807;SDS011;2930;42.678;23.312;2022-12-07T14:25:24;6.90;;;4.22;;
5807;SDS011;2930;42.678;23.312;2022-12-07T14:27:58;8.15;;;5.45;;
5807;SDS011;2930;42.678;23.312;2022-12-07T14:30:29;9.90;;;5.93;;
5807;SDS011;2930;42.678;23.312;2022-12-07T14:33:00;8.75;;;5.15;;
5807;SDS011;2930;42.678;23.312;2022-12-07T14:35:27;8.85;;;5.70;;
5807;SDS011;2930;42.678;23.312;2022-12-07T14:37:53;7.40;;;5.05;;
5807;SDS011;2930;42.678;23.312;2022-12-07T14:40:20;8.63;;;5.45;;
5807;SDS011;2930;42.678;23.312;2022-12-07T14:42:49;5.97;;;4.95;;
5807;SDS011;2930;42.678;23.312;2022-12-07T14:45:20;8.18;;;5.30;;
5807;SDS011;2930;42.678;23.312;2022-12-07T14:47:47;10.70;;;5.18;;
5807;SDS011;2930;42.678;23.312;2022-12-07T14:50:14;10.88;;;5.03;;
5807;SDS011;2930;42.678;23.312;2022-12-07T14:52:42;7.85;;;5.28;;
5807;SDS011;2930;42.678;23.312;2022-12-07T14:55:27;8.82;;;5.20;;
5807;SDS011;2930;42.678;23.312;2022-12-07T14:57:54;7.68;;;5.18;;
5807;SDS011;2930;42.678;23.312;2022-12-07T15:00:21;8.00;;;5.07;;
5807;SDS011;2930;42.678;23.312;2022-12-07T15:02:48;11.23;;;5.65;;
5807;SDS011;2930;42.678;23.312;2022-12-07T15:05:14;7.28;;;5.22;;
5807;SDS011;2930;42.678;23.312;2022-12-07T15:07:40;7.43;;;4.65;;
5807;SDS011;2930;42.678;23.312;2022-12-07T15:10:09;7.75;;;5.20;;
5807;SDS011;2930;42.678;23.312;2022-12-07T15:12:41;9.23;;;5.45;;
5807;SDS011;2930;42.678;23.312;2022-12-07T15:15:08;11.90;;;6.43;;
5807;SDS011;2930;42.678;23.312;2022-12-07T15:17:34;7.68;;;5.35;;
5807;SDS011;2930;42.678;23.312;2022-12-07T15:20:00;6.53;;;5.75;;
5807;SDS011;2930;42.678;23.312;2022-12-07T15:22:25;8.13;;;5.45;;
5807;SDS011;2930;42.678;23.312;2022-12-07T15:24:51;10.98;;;6.85;;
5807;SDS011;2930;42.678;23.312;2022-12-07T15:27:17;6.07;;;4.75;;
5807;SDS011;2930;42.678;23.312;2022-12-07T15:29:42;8.35;;;4.90;;
5807;SDS011;2930;42.678;23.312;2022-12-07T15:32:08;13.85;;;5.97;;
5807;SDS011;2930;42.678;23.312;2022-12-07T15:34:34;6.68;;;5.25;;
5807;SDS011;2930;42.678;23.312;2022-12-07T15:36:59;8.32;;;5.90;;
5807;SDS011;2930;42.678;23.312;2022-12-07T15:39:25;13.15;;;6.45;;
5807;SDS011;2930;42.678;23.312;2022-12-07T15:41:51;18.42;;;8.00;;
5807;SDS011;2930;42.678;23.312;2022-12-07T15:44:16;12.32;;;7.43;;
5807;SDS011;2930;42.678;23.312;2022-12-07T15:47:00;22.48;;;7.15;;
5807;SDS011;2930;42.678;23.312;2022-12-07T15:49:26;14.77;;;7.28;;
5807;SDS011;2930;42.678;23.312;2022-12-07T15:51:52;12.98;;;7.43;;
5807;SDS011;2930;42.678;23.312;2022-12-07T15:54:19;13.02;;;7.65;;
5807;SDS011;2930;42.678;23.312;2022-12-07T15:56:47;14.57;;;8.45;;
5807;SDS011;2930;42.678;23.312;2022-12-07T15:59:13;16.20;;;8.38;;
5807;SDS011;2930;42.678;23.312;2022-12-07T16:01:39;21.08;;;9.20;;
5807;SDS011;2930;42.678;23.312;2022-12-07T16:04:04;17.73;;;7.90;;
5807;SDS011;2930;42.678;23.312;2022-12-07T16:06:30;14.63;;;7.28;;
5807;SDS011;2930;42.678;23.312;2022-12-07T16:08:56;16.30;;;8.57;;
5807;SDS011;2930;42.678;23.312;2022-12-07T16:11:22;16.77;;;6.82;;
5807;SDS011;2930;42.678;23.312;2022-12-07T16:13:48;12.13;;;7.38;;
5807;SDS011;2930;42.678;23.312;2022-12-07T16:16:15;15.60;;;7.10;;
5807;SDS011;2930;42.678;23.312;2022-12-07T16:18:42;13.55;;;7.28;;
5807;SDS011;2930;42.678;23.312;2022-12-07T16:21:09;14.32;;;8.65;;
5807;SDS011;2930;42.678;23.312;2022-12-07T16:23:35;15.43;;;8.00;;
5807;SDS011;2930;42.678;23.312;2022-12-07T16:26:05;18.13;;;7.75;;
5807;SDS011;2930;42.678;23.312;2022-12-07T16:28:31;14.80;;;7.82;;
5807;SDS011;2930;42.678;23.312;2022-12-07T16:31:01;14.60;;;7.28;;
5807;SDS011;2930;42.678;23.312;2022-12-07T16:33:32;12.20;;;8.15;;
5807;SDS011;2930;42.678;23.312;2022-12-07T16:36:02;12.80;;;7.30;;
5807;SDS011;2930;42.678;23.312;2022-12-07T16:38:29;15.82;;;7.72;;
5807;SDS011;2930;42.678;23.312;2022-12-07T16:40:55;16.92;;;8.80;;
5807;SDS011;2930;42.678;23.312;2022-12-07T16:43:20;18.08;;;8.57;;
5807;SDS011;2930;42.678;23.312;2022-12-07T16:45:46;17.20;;;10.07;;
5807;SDS011;2930;42.678;23.312;2022-12-07T16:48:13;20.60;;;10.02;;
5807;SDS011;2930;42.678;23.312;2022-12-07T16:50:40;20.95;;;10.45;;
5807;SDS011;2930;42.678;23.312;2022-12-07T16:53:10;14.63;;;9.07;;
5807;SDS011;2930;42.678;23.312;2022-12-07T16:55:38;20.05;;;9.68;;
5807;SDS011;2930;42.678;23.312;2022-12-07T16:58:09;21.27;;;9.95;;
5807;SDS011;2930;42.678;23.312;2022-12-07T17:00:36;19.10;;;10.48;;
5807;SDS011;2930;42.678;23.312;2022-12-07T17:03:02;22.35;;;8.73;;
5807;SDS011;2930;42.678;23.312;2022-12-07T17:05:28;21.30;;;9.20;;
5807;SDS011;2930;42.678;23.312;2022-12-07T17:07:55;17.30;;;9.85;;
5807;SDS011;2930;42.678;23.312;2022-12-07T17:10:21;20.58;;;9.98;;
5807;SDS011;2930;42.678;23.312;2022-12-07T17:12:48;22.08;;;9.52;;
5807;SDS011;2930;42.678;23.312;2022-12-07T17:15:13;21.58;;;9.82;;
5807;SDS011;2930;42.678;23.312;2022-12-07T17:17:43;22.50;;;9.80;;
5807;SDS011;2930;42.678;23.312;2022-12-07T17:20:10;15.25;;;9.50;;
5807;SDS011;2930;42.678;23.312;2022-12-07T17:22:36;16.23;;;8.98;;
5807;SDS011;2930;42.678;23.312;2022-12-07T17:25:03;15.57;;;9.90;;
5807;SDS011;2930;42.678;23.312;2022-12-07T17:27:29;20.55;;;9.82;;
5807;SDS011;2930;42.678;23.312;2022-12-07T17:29:56;22.50;;;10.70;;
5807;SDS011;2930;42.678;23.312;2022-12-07T17:32:22;18.27;;;9.70;;
5807;SDS011;2930;42.678;23.312;2022-12-07T17:34:48;24.38;;;10.55;;
5807;SDS011;2930;42.678;23.312;2022-12-07T17:37:14;20.00;;;9.90;;
5807;SDS011;2930;42.678;23.312;2022-12-07T17:39:40;25.33;;;10.15;;
5807;SDS011;2930;42.678;23.312;2022-12-07T17:42:05;20.48;;;10.93;;
5807;SDS011;2930;42.678;23.312;2022-12-07T17:44:49;15.90;;;9.55;;
5807;SDS011;2930;42.678;23.312;2022-12-07T17:47:15;19.03;;;9.73;;
5807;SDS011;2930;42.678;23.312;2022-12-07T17:49:42;17.80;;;10.15;;